Time;durP1;ratioP1;P1;durP2;ratioP2;P2;SDS_P1;SDS_P2;PMS_P1;PMS_P2;Temp;Humidity;BMP_temperature;BMP_pressure;BME280_temperature;BME280_humidity;BME280_pressure;Samples;Min_cycle;Max_cycle;Signal;HPM_P1;HPM_P2
2022/08/31 00:05:23;;;;;;;;;0.75;0.75;;;;;18.33;54.38;102287.13;5027558;28;8850;-66
2022/08/31 00:07:50;;;;;;;;;1.00;1.00;;;;;18.29;54.85;102281.25;5060866;22;9685;-66
2022/08/31 00:10:19;;;;;;;;;0.50;0.50;;;;;18.17;54.58;102282.09;5052476;28;8853;-67
2022/08/31 00:12:58;;;;;;;;;1.00;1.00;;;;;18.10;54.83;102281.25;5050848;28;8907;-67
2022/08/31 00:15:25;;;;;;;;;0.50;0.50;;;;;17.98;55.23;102279.13;5051976;28;8857;-65
2022/08/31 00:17:52;;;;;;;;;1.00;1.00;;;;;18.01;55.07;102281.44;5033573;28;8837;-65
2022/08/31 00:20:20;;;;;;;;;3.00;1.50;;;;;18.02;55.19;102288.56;5020472;28;8843;-65
2022/08/31 00:23:01;;;;;;;;;1.00;0.50;;;;;18.01;54.85;102278.72;5012335;28;8846;-65
2022/08/31 00:25:28;;;;;;;;;2.00;2.00;;;;;17.97;55.26;102280.19;5011982;28;9524;-65
2022/08/31 00:27:55;;;;;;;;;0.00;0.00;;;;;17.97;55.67;102284.81;5020601;28;8894;-65
2022/08/31 00:30:22;;;;;;;;;0.00;0.00;;;;;17.99;55.67;102285.44;5031969;28;9537;-66
2022/08/31 00:32:48;;;;;;;;;1.00;1.00;;;;;18.03;55.37;102276.66;5046086;28;8864;-65
2022/08/31 00:35:15;;;;;;;;;1.00;1.00;;;;;18.00;55.38;102276.22;5010699;28;8842;-65
2022/08/31 00:37:42;;;;;;;;;0.00;0.00;;;;;17.92;55.84;102269.09;5010658;28;8913;-65
2022/08/31 00:40:09;;;;;;;;;1.00;1.00;;;;;17.95;55.75;102286.91;5020241;28;8864;-65
2022/08/31 00:42:35;;;;;;;;;1.00;0.75;;;;;17.92;55.87;102276.44;5047080;28;8844;-65
2022/08/31 00:45:04;;;;;;;;;0.00;0.00;;;;;17.83;55.86;102278.50;5031636;28;8966;-66
2022/08/31 00:47:31;;;;;;;;;1.00;1.00;;;;;17.83;56.22;102273.06;5029539;28;9640;-66
2022/08/31 00:49:59;;;;;;;;;1.00;1.00;;;;;17.82;56.21;102275.97;5030123;28;8852;-66
2022/08/31 00:52:33;;;;;;;;;0.25;0.25;;;;;17.77;56.30;102268.44;5046546;28;8860;-66
2022/08/31 00:55:28;;;;;;;;;0.00;0.00;;;;;17.75;56.50;102278.72;5031223;28;8906;-66
2022/08/31 00:57:57;;;;;;;;;0.00;0.00;;;;;17.78;56.50;102276.41;5031195;28;8824;-66
2022/08/31 01:00:26;;;;;;;;;1.00;1.00;;;;;17.77;56.20;102277.44;5046329;28;8821;-66
2022/08/31 01:02:54;;;;;;;;;2.25;1.25;;;;;17.75;56.27;102282.28;5030787;28;8833;-65
2022/08/31 01:05:21;;;;;;;;;1.00;1.00;;;;;17.69;56.66;102287.66;5046477;28;8844;-65
2022/08/31 01:07:49;;;;;;;;;1.75;1.75;;;;;17.71;56.81;102286.41;5030743;28;8828;-65
2022/08/31 01:10:19;;;;;;;;;0.75;0.50;;;;;17.76;56.55;102283.94;5029611;28;8852;-66
2022/08/31 01:12:49;;;;;;;;;0.00;0.00;;;;;17.76;56.50;102281.22;5013567;28;8840;-66
2022/08/31 01:15:16;;;;;;;;;1.00;1.00;;;;;17.72;56.56;102271.75;5023757;28;9623;-65
2022/08/31 01:17:47;;;;;;;;;0.50;0.00;;;;;17.65;56.71;102273.63;5011363;28;8835;-65
2022/08/31 01:20:30;;;;;;;;;2.00;1.75;;;;;17.61;57.32;102283.25;5011474;28;8831;-65
2022/08/31 01:23:12;;;;;;;;;1.00;1.00;;;;;17.53;57.22;102272.53;5026229;28;8865;-65
2022/08/31 01:25:42;;;;;;;;;1.00;1.00;;;;;17.58;57.50;102277.38;5026442;28;9641;-66
2022/08/31 01:28:09;;;;;;;;;1.00;1.00;;;;;17.59;57.08;102274.44;5026656;28;8865;-66
2022/08/31 01:30:37;;;;;;;;;0.75;0.75;;;;;17.69;57.37;102285.78;5029346;28;8813;-66
2022/08/31 01:33:05;;;;;;;;;1.00;1.00;;;;;17.75;56.91;102278.72;5030531;28;8844;-66
2022/08/31 01:35:32;;;;;;;;;1.00;1.00;;;;;17.67;57.22;102274.25;5029518;28;8844;-66
2022/08/31 01:38:01;;;;;;;;;0.00;0.00;;;;;17.63;57.30;102278.44;5028789;28;8851;-66
2022/08/31 01:40:36;;;;;;;;;1.00;1.00;;;;;17.69;57.51;102285.78;5045874;28;9639;-66
2022/08/31 01:43:03;;;;;;;;;0.00;0.00;;;;;17.72;56.94;102285.38;5044286;28;8829;-66
2022/08/31 01:45:29;;;;;;;;;1.25;0.00;;;;;17.73;57.07;102288.94;5030624;28;8847;-66
2022/08/31 01:47:59;;;;;;;;;0.00;0.00;;;;;17.69;56.88;102285.78;5026252;28;8839;-66
2022/08/31 01:50:25;;;;;;;;;1.00;1.00;;;;;17.62;57.03;102293.09;5010856;28;9544;-66
2022/08/31 01:52:52;;;;;;;;;0.75;0.75;;;;;17.57;57.31;102287.41;5036479;28;8836;-66
2022/08/31 01:55:19;;;;;;;;;0.25;0.25;;;;;17.61;57.12;102288.69;5045757;28;8910;-66
2022/08/31 01:57:46;;;;;;;;;2.00;2.00;;;;;17.55;57.19;102289.53;5044721;28;8844;-66
2022/08/31 02:00:32;;;;;;;;;0.00;0.00;;;;;17.47;57.68;102287.00;5030557;28;8954;-65
2022/08/31 02:03:01;;;;;;;;;1.75;1.75;;;;;17.45;57.32;102291.78;5030486;28;8841;-64
2022/08/31 02:05:28;;;;;;;;;0.25;0.25;;;;;17.41;57.68;102295.97;5029992;28;8832;-65
2022/08/31 02:07:55;;;;;;;;;1.00;1.00;;;;;17.35;57.58;102294.91;5045399;28;8890;-65
2022/08/31 02:10:23;;;;;;;;;1.00;1.00;;;;;17.30;57.63;102287.34;5029478;28;8815;-65
2022/08/31 02:12:50;;;;;;;;;1.00;1.00;;;;;17.36;57.65;102291.13;5029106;28;8852;-65
2022/08/31 02:15:27;;;;;;;;;1.50;1.00;;;;;17.44;57.31;102293.66;5044117;28;8845;-65
2022/08/31 02:17:54;;;;;;;;;1.25;1.25;;;;;17.36;57.55;102295.75;5028477;28;8840;-65
2022/08/31 02:20:22;;;;;;;;;1.00;1.00;;;;;17.34;58.30;102297.81;5030441;28;8824;-64
2022/08/31 02:22:49;;;;;;;;;1.00;1.00;;;;;17.35;57.84;102294.91;5029189;28;8856;-65
2022/08/31 02:25:16;;;;;;;;;0.00;0.00;;;;;17.35;58.23;102294.06;5028365;28;8852;-65
2022/08/31 02:27:42;;;;;;;;;0.00;0.00;;;;;17.35;57.94;102300.34;5030177;28;9603;-65
2022/08/31 02:30:13;;;;;;;;;0.00;0.00;;;;;17.35;57.97;102294.06;5012518;28;8872;-65
2022/08/31 02:32:39;;;;;;;;;1.00;1.00;;;;;17.26;58.02;102294.25;5028944;28;8863;-65
2022/08/31 02:35:08;;;;;;;;;1.00;1.00;;;;;17.24;58.29;102288.16;5044982;28;8845;-65
2022/08/31 02:37:35;;;;;;;;;1.00;1.00;;;;;17.23;58.17;102288.38;5044943;28;8851;-65
2022/08/31 02:40:05;;;;;;;;;1.50;1.00;;;;;17.24;58.09;102288.16;5029970;28;8836;-65
2022/08/31 02:42:36;;;;;;;;;1.25;1.00;;;;;17.24;57.79;102281.88;5029782;28;8899;-65
2022/08/31 02:45:20;;;;;;;;;1.00;1.00;;;;;17.22;57.36;102279.38;5045367;28;8828;-65
2022/08/31 02:47:47;;;;;;;;;1.50;1.50;;;;;17.21;57.69;102280.38;5043159;28;8836;-66
2022/08/31 02:50:21;;;;;;;;;1.00;1.00;;;;;17.20;57.51;102280.59;5045299;28;9592;-65
2022/08/31 02:52:49;;;;;;;;;1.50;1.50;;;;;17.24;57.96;102277.25;5045323;28;9619;-65
2022/08/31 02:55:16;;;;;;;;;1.75;1.00;;;;;17.27;57.12;102279.59;5029899;28;8844;-65
2022/08/31 02:57:43;;;;;;;;;1.25;1.25;;;;;17.30;57.46;102284.63;5029633;28;8848;-66
2022/08/31 03:00:10;;;;;;;;;1.00;1.00;;;;;17.30;56.89;102275.63;5045144;28;8837;-65
2022/08/31 03:02:39;;;;;;;;;0.00;0.00;;;;;17.32;57.04;102280.84;5012492;28;8845;-65
2022/08/31 03:05:07;;;;;;;;;1.25;1.25;;;;;17.29;57.16;102280.22;5027318;28;8832;-65
2022/08/31 03:07:37;;;;;;;;;0.00;0.00;;;;;17.26;57.22;102291.53;5028061;28;8836;-65
2022/08/31 03:10:07;;;;;;;;;1.00;1.00;;;;;17.25;57.34;102291.72;5028220;28;8833;-65
2022/08/31 03:12:35;;;;;;;;;0.25;0.25;;;;;17.27;57.14;102286.91;5028544;28;9586;-65
2022/08/31 03:15:05;;;;;;;;;0.50;0.00;;;;;17.33;56.86;102286.09;5025727;28;9516;-65
2022/08/31 03:17:32;;;;;;;;;0.25;0.00;;;;;17.37;56.37;102295.53;5010080;28;8835;-65
2022/08/31 03:20:00;;;;;;;;;1.00;1.00;;;;;17.35;55.84;102288.63;5012259;28;8839;-64
2022/08/31 03:22:27;;;;;;;;;0.50;0.50;;;;;17.32;55.87;102284.41;5012072;28;8831;-65
2022/08/31 03:24:53;;;;;;;;;0.00;0.00;;;;;17.28;54.76;102286.69;5019823;28;8812;-65
2022/08/31 03:27:23;;;;;;;;;1.00;1.00;;;;;17.22;54.54;102289.41;5048325;28;8844;-64
2022/08/31 03:29:51;;;;;;;;;0.00;0.00;;;;;17.14;53.97;102287.69;5042413;28;8856;-64
2022/08/31 03:32:22;;;;;;;;;0.00;0.00;;;;;17.10;53.78;102291.03;5048396;28;8839;-65
2022/08/31 03:34:55;;;;;;;;;0.50;0.50;;;;;17.07;52.98;102296.88;5014741;28;8956;-65
2022/08/31 03:37:22;;;;;;;;;0.00;0.00;;;;;17.09;52.30;102292.88;5032429;28;8848;-65
2022/08/31 03:39:49;;;;;;;;;0.75;0.00;;;;;17.10;52.44;102299.19;5031654;28;8856;-65
2022/08/31 03:42:16;;;;;;;;;0.75;0.00;;;;;17.06;52.30;102290.59;5047935;28;8890;-65
2022/08/31 03:44:43;;;;;;;;;0.75;0.00;;;;;17.04;51.93;102287.22;5031712;28;8859;-65
2022/08/31 03:47:17;;;;;;;;;0.00;0.00;;;;;17.08;51.96;102295.81;5029967;28;8947;-65
2022/08/31 03:49:44;;;;;;;;;0.25;0.00;;;;;17.03;51.98;102299.16;5028036;28;9599;-65
2022/08/31 03:52:20;;;;;;;;;0.00;0.00;;;;;17.02;52.21;102294.75;5011794;28;8986;-65
2022/08/31 03:54:55;;;;;;;;;0.00;0.00;;;;;17.06;51.96;102293.31;5028213;28;8909;-65
2022/08/31 03:57:22;;;;;;;;;0.00;0.00;;;;;17.10;51.76;102301.91;5011339;28;8827;-65
2022/08/31 03:59:52;;;;;;;;;0.00;0.00;;;;;17.18;51.44;102299.88;5046388;28;8840;-65
2022/08/31 04:02:20;;;;;;;;;0.00;0.00;;;;;17.20;51.53;102305.09;5020132;28;8866;-64
2022/08/31 04:05:06;;;;;;;;;0.00;0.00;;;;;17.19;51.63;102308.84;5030603;28;8825;-65
2022/08/31 04:07:59;;;;;;;;;0.25;0.25;;;;;17.14;51.19;102309.47;5031277;28;8857;-65
2022/08/31 04:10:46;;;;;;;;;0.50;0.50;;;;;17.13;50.98;102307.78;5031745;28;8851;-65
2022/08/31 04:13:32;;;;;;;;;0.50;0.00;;;;;17.19;51.07;102309.69;5032491;28;8840;-65
2022/08/31 04:16:25;;;;;;;;;0.00;0.00;;;;;17.23;50.47;102308.25;5030890;28;8836;-65
2022/08/31 04:19:14;;;;;;;;;0.00;0.00;;;;;17.17;50.55;102309.03;5032034;28;9628;-64
2022/08/31 04:21:52;;;;;;;;;0.00;0.00;;;;;17.18;50.50;102310.75;5030921;28;8825;-64
2022/08/31 04:24:18;;;;;;;;;0.00;0.00;;;;;17.22;51.41;102308.47;5000948;28;8827;-65
2022/08/31 04:26:50;;;;;;;;;0.00;0.00;;;;;17.25;51.15;102305.31;5017777;28;8844;-65
2022/08/31 04:29:17;;;;;;;;;0.00;0.00;;;;;17.26;51.75;102317.91;5046804;28;8931;-65
2022/08/31 04:31:44;;;;;;;;;0.00;0.00;;;;;17.28;51.83;102305.75;5047117;28;8855;-65
2022/08/31 04:34:10;;;;;;;;;1.00;0.00;;;;;17.29;52.05;102307.41;5047458;28;8832;-65
2022/08/31 04:36:38;;;;;;;;;0.00;0.00;;;;;17.30;52.30;102311.84;5029691;28;8841;-66
2022/08/31 04:39:06;;;;;;;;;0.00;0.00;;;;;17.29;52.88;102310.16;5020949;28;9553;-66
2022/08/31 04:41:36;;;;;;;;;0.00;0.00;;;;;17.27;53.27;102314.97;5030375;28;9545;-65
2022/08/31 04:44:04;;;;;;;;;0.00;0.00;;;;;17.25;53.38;102308.88;5047120;28;8836;-66
2022/08/31 04:46:34;;;;;;;;;0.00;0.00;;;;;17.20;53.27;102319.53;5046476;28;8921;-65
2022/08/31 04:49:00;;;;;;;;;0.00;0.00;;;;;17.14;53.81;102314.06;5038452;28;8915;-65
2022/08/31 04:51:30;;;;;;;;;1.00;0.00;;;;;17.10;53.55;102313.63;5026983;28;8850;-65
2022/08/31 04:53:57;;;;;;;;;0.00;0.00;;;;;17.14;52.95;102317.63;5027111;28;8881;-65
2022/08/31 04:56:26;;;;;;;;;0.75;0.75;;;;;17.11;52.85;102314.47;5010054;28;8977;-66
2022/08/31 04:58:56;;;;;;;;;0.00;0.00;;;;;17.01;52.92;102320.25;5029233;28;8812;-65
2022/08/31 05:01:26;;;;;;;;;0.00;0.00;;;;;17.03;53.23;102326.34;5046704;28;8898;-65
2022/08/31 05:04:23;;;;;;;;;0.00;0.00;;;;;17.04;53.09;102323.44;5030369;28;8848;-65
2022/08/31 05:06:50;;;;;;;;;0.00;0.00;;;;;17.03;52.77;102334.53;5031079;28;8833;-65
2022/08/31 05:09:20;;;;;;;;;0.25;0.00;;;;;17.02;52.92;102335.56;5031314;28;8832;-66
2022/08/31 05:11:50;;;;;;;;;0.00;0.00;;;;;17.01;52.39;102342.03;5030152;28;8925;-65
2022/08/31 05:14:17;;;;;;;;;0.25;0.00;;;;;17.00;52.53;102341.19;5030915;28;9660;-65
2022/08/31 05:16:50;;;;;;;;;0.00;0.00;;;;;17.00;52.20;102343.91;5037643;28;8898;-65
2022/08/31 05:19:17;;;;;;;;;1.75;0.00;;;;;16.96;52.81;102336.34;5021282;28;8963;-66
2022/08/31 05:21:44;;;;;;;;;0.00;0.00;;;;;16.94;52.79;102343.88;5046555;28;8840;-64
2022/08/31 05:24:13;;;;;;;;;0.75;0.00;;;;;16.93;53.00;102344.91;5046350;28;8836;-66
2022/08/31 05:26:47;;;;;;;;;0.00;0.00;;;;;16.93;53.40;102334.88;5029404;28;8852;-64
2022/08/31 05:29:18;;;;;;;;;0.00;0.00;;;;;16.97;53.59;102343.47;5046202;28;8833;-65
2022/08/31 05:31:45;;;;;;;;;0.00;0.00;;;;;16.95;54.00;102354.56;5012805;28;8920;-65
2022/08/31 05:34:19;;;;;;;;;0.00;0.00;;;;;16.92;54.22;102343.22;5026172;28;8812;-63
2022/08/31 05:36:50;;;;;;;;;0.00;0.00;;;;;16.91;54.09;102338.84;5009540;28;8859;-65
2022/08/31 05:39:17;;;;;;;;;0.00;0.00;;;;;17.00;54.02;102343.06;5022821;28;8848;-64
2022/08/31 05:41:45;;;;;;;;;0.00;0.00;;;;;17.03;54.40;102348.97;5045705;28;8840;-66
2022/08/31 05:44:12;;;;;;;;;0.00;0.00;;;;;17.07;54.73;102346.69;5045662;28;8833;-65
2022/08/31 05:46:40;;;;;;;;;0.00;0.00;;;;;17.10;55.32;102353.63;5045637;28;9584;-66
2022/08/31 05:49:07;;;;;;;;;0.25;0.25;;;;;17.09;55.59;102350.03;5043342;28;8929;-65
2022/08/31 05:51:37;;;;;;;;;2.00;0.75;;;;;17.05;55.54;102355.06;5010820;28;8823;-65
2022/08/31 05:54:06;;;;;;;;;0.00;0.00;;;;;17.05;55.71;102348.75;5009578;28;8853;-65
2022/08/31 05:56:33;;;;;;;;;3.00;0.00;;;;;17.05;55.91;102355.06;5009179;28;8851;-66
2022/08/31 05:59:00;;;;;;;;;0.75;0.00;;;;;17.02;55.50;102350.00;5016738;28;8828;-64
2022/08/31 06:01:30;;;;;;;;;0.75;0.75;;;;;17.01;55.50;102353.78;5028695;28;8890;-65
2022/08/31 06:04:19;;;;;;;;;0.25;0.25;;;;;16.94;55.69;102350.16;5030693;28;8864;-65
2022/08/31 06:06:46;;;;;;;;;0.25;0.00;;;;;16.88;56.17;102355.56;5030247;28;8844;-66
2022/08/31 06:09:15;;;;;;;;;1.00;0.00;;;;;16.92;55.80;102359.56;5045372;28;8836;-66
2022/08/31 06:11:43;;;;;;;;;0.00;0.00;;;;;16.91;56.45;102356.00;5030696;28;8850;-66
2022/08/31 06:14:15;;;;;;;;;0.00;0.00;;;;;16.93;56.37;102356.63;5029367;28;8856;-66
2022/08/31 06:16:43;;;;;;;;;0.75;0.75;;;;;16.91;56.88;102361.44;5028866;28;8909;-66
2022/08/31 06:19:12;;;;;;;;;1.00;0.00;;;;;16.90;57.08;102361.66;5026661;28;8934;-66
2022/08/31 06:21:42;;;;;;;;;0.25;0.25;;;;;16.92;57.04;102359.56;5045559;28;8837;-66
2022/08/31 06:24:21;;;;;;;;;1.00;0.00;;;;;16.94;57.12;102368.38;5045520;28;8922;-66
2022/08/31 06:26:57;;;;;;;;;0.75;0.00;;;;;16.91;56.86;102368.75;5044999;28;8882;-65
2022/08/31 06:29:30;;;;;;;;;0.00;0.00;;;;;16.91;57.23;102366.88;5028899;28;8926;-65
2022/08/31 06:31:59;;;;;;;;;0.00;0.00;;;;;16.99;57.37;102368.59;5043703;28;8836;-66
2022/08/31 06:34:27;;;;;;;;;0.00;0.00;;;;;17.05;57.16;102365.06;5045635;28;8860;-65
2022/08/31 06:37:04;;;;;;;;;1.75;0.25;;;;;17.01;56.42;102369.22;5029616;28;8848;-66
2022/08/31 06:39:56;;;;;;;;;0.00;0.00;;;;;16.97;57.32;102367.94;5021516;28;8844;-66
2022/08/31 06:42:36;;;;;;;;;1.75;0.00;;;;;16.94;57.36;102373.81;5045257;28;8905;-66
2022/08/31 06:45:26;;;;;;;;;0.00;0.00;;;;;16.99;57.63;102371.31;5036739;28;9631;-66
2022/08/31 06:48:00;;;;;;;;;0.00;0.00;;;;;17.05;57.74;102376.81;5008707;28;8871;-66
2022/08/31 06:50:26;;;;;;;;;1.75;0.00;;;;;17.04;57.93;102379.72;5034754;28;8836;-66
2022/08/31 06:52:54;;;;;;;;;0.25;0.00;;;;;17.02;58.56;102376.38;5049253;28;8860;-66
2022/08/31 06:55:23;;;;;;;;;0.00;0.00;;;;;17.05;58.39;102375.94;5049047;28;8816;-67
2022/08/31 06:58:08;;;;;;;;;0.50;0.00;;;;;17.04;58.11;102385.16;5032666;28;8840;-66
2022/08/31 07:01:06;;;;;;;;;0.00;0.00;;;;;17.10;58.46;102387.09;5033441;28;8954;-66
2022/08/31 07:03:47;;;;;;;;;0.75;0.75;;;;;17.15;57.75;102381.06;5048259;28;8832;-66
2022/08/31 07:06:36;;;;;;;;;1.00;0.75;;;;;17.21;57.63;102389.25;5048443;28;8958;-66
2022/08/31 07:09:06;;;;;;;;;0.50;0.50;;;;;17.20;57.59;102389.44;5032374;28;8829;-67
2022/08/31 07:11:41;;;;;;;;;0.25;0.25;;;;;17.26;57.56;102389.50;5048929;28;8847;-66
2022/08/31 07:14:14;;;;;;;;;0.25;0.00;;;;;17.32;57.71;102395.16;5033516;28;8836;-66
2022/08/31 07:16:43;;;;;;;;;0.00;0.00;;;;;17.26;57.59;102386.78;5031712;28;8860;-66
2022/08/31 07:19:12;;;;;;;;;0.00;0.00;;;;;17.30;57.80;102388.06;5048031;28;8856;-66
2022/08/31 07:21:41;;;;;;;;;0.00;0.00;;;;;17.37;58.23;102401.69;5041813;28;8925;-66
2022/08/31 07:24:09;;;;;;;;;0.25;0.00;;;;;17.45;58.02;102397.97;5048863;28;8950;-66
2022/08/31 07:26:41;;;;;;;;;0.00;0.00;;;;;17.49;58.11;102393.78;5048110;28;8840;-67
2022/08/31 07:29:10;;;;;;;;;0.00;0.00;;;;;17.49;57.80;102396.50;5031698;28;8921;-67
2022/08/31 07:31:47;;;;;;;;;1.00;0.00;;;;;17.49;57.61;102408.22;5048029;28;8840;-67
2022/08/31 07:34:24;;;;;;;;;0.00;0.00;;;;;17.50;57.52;102395.47;5032921;28;8833;-65
2022/08/31 07:42:42;;;;;;;;;1.00;1.00;;;;;17.53;57.54;102401.34;5048035;28;8891;-66
2022/08/31 07:45:21;;;;;;;;;0.00;0.00;;;;;17.50;57.72;102401.78;5031324;28;8848;-66
2022/08/31 07:47:51;;;;;;;;;0.00;0.00;;;;;17.48;57.96;102398.41;5030815;28;8845;-65
2022/08/31 07:50:20;;;;;;;;;0.00;0.00;;;;;17.55;58.29;102396.56;5047559;28;8836;-65
2022/08/31 07:53:07;;;;;;;;;0.00;0.00;;;;;17.63;58.41;102400.16;5024332;28;8859;-65
2022/08/31 07:55:44;;;;;;;;;1.00;0.00;;;;;17.77;57.90;102399.19;5047539;28;8976;-66
2022/08/31 07:58:30;;;;;;;;;1.00;0.00;;;;;17.75;57.49;102398.56;5032438;28;8938;-65
2022/08/31 08:01:01;;;;;;;;;0.00;0.00;;;;;17.66;57.70;102399.72;5047643;28;8917;-65
2022/08/31 08:03:29;;;;;;;;;1.00;1.00;;;;;17.60;57.81;102406.00;5030715;28;8906;-65
2022/08/31 08:06:15;;;;;;;;;0.00;0.00;;;;;17.58;58.21;102411.63;5032311;28;8868;-65
2022/08/31 08:09:11;;;;;;;;;1.00;1.00;;;;;17.65;57.88;102407.06;5010116;28;8834;-66
2022/08/31 08:12:05;;;;;;;;;0.00;0.00;;;;;17.72;57.87;102412.53;5027391;28;8929;-66
2022/08/31 08:14:56;;;;;;;;;0.00;0.00;;;;;17.74;57.47;102413.16;5032281;28;8832;-66
2022/08/31 08:17:51;;;;;;;;;1.75;0.00;;;;;17.69;56.59;102408.31;5027297;28;8839;-66
2022/08/31 08:20:23;;;;;;;;;1.00;1.00;;;;;17.70;57.08;102399.13;5013288;28;8937;-66
2022/08/31 08:23:11;;;;;;;;;1.25;1.00;;;;;17.75;57.21;102418.47;5028197;28;8833;-66
2022/08/31 08:26:10;;;;;;;;;1.00;0.50;;;;;17.75;56.54;102404.84;5031796;28;9382;-66
2022/08/31 08:29:05;;;;;;;;;1.00;1.00;;;;;17.73;56.55;102412.31;5032248;28;8847;-66
2022/08/31 08:31:36;;;;;;;;;0.00;0.00;;;;;17.83;56.16;102402.97;5047167;28;8825;-66
2022/08/31 08:34:03;;;;;;;;;0.00;0.00;;;;;17.93;56.13;102412.44;5046989;28;8845;-65
2022/08/31 08:36:36;;;;;;;;;0.00;0.00;;;;;18.00;55.27;102412.47;5022858;28;8850;-66
2022/08/31 08:39:06;;;;;;;;;0.00;0.00;;;;;18.07;55.58;102409.72;5027403;28;9246;-65
2022/08/31 08:41:36;;;;;;;;;0.00;0.00;;;;;18.06;56.00;102414.34;5022550;28;8816;-65
2022/08/31 08:44:08;;;;;;;;;0.00;0.00;;;;;18.13;55.98;102411.66;5031784;28;8829;-65
2022/08/31 08:46:51;;;;;;;;;1.00;1.00;;;;;18.13;55.95;102414.38;5040697;28;9638;-65
2022/08/31 08:49:49;;;;;;;;;0.00;0.00;;;;;18.14;55.18;102407.88;4994571;28;8961;-65
2022/08/31 08:52:26;;;;;;;;;0.00;0.00;;;;;18.17;55.50;102412.91;5045816;28;8852;-65
2022/08/31 08:54:59;;;;;;;;;1.00;1.00;;;;;18.18;55.54;102414.59;5030164;28;8845;-66
2022/08/31 08:57:30;;;;;;;;;0.75;0.75;;;;;18.21;55.47;102420.47;5029563;28;8860;-66
2022/08/31 09:00:04;;;;;;;;;0.00;0.00;;;;;18.21;55.80;102406.84;5046430;28;8838;-67
2022/08/31 09:03:15;;;;;;;;;1.00;1.00;;;;;18.26;55.02;102400.75;5029867;28;8960;-65
2022/08/31 09:06:34;;;;;;;;;0.00;0.00;;;;;18.33;54.76;102412.53;5046099;28;8964;-66
2022/08/31 09:09:19;;;;;;;;;1.00;1.00;;;;;18.41;54.70;102415.06;5029792;28;8898;-65
2022/08/31 09:12:07;;;;;;;;;0.00;0.00;;;;;18.44;54.43;102405.63;5029859;28;8820;-65
2022/08/31 09:15:02;;;;;;;;;0.25;0.00;;;;;18.50;54.65;102402.06;5028909;28;8874;-66
2022/08/31 09:17:41;;;;;;;;;1.00;1.00;;;;;18.57;54.39;102402.06;5032841;28;8900;-66
2022/08/31 09:20:11;;;;;;;;;1.50;0.75;;;;;18.65;53.95;102404.59;5010295;28;8846;-66
2022/08/31 09:22:51;;;;;;;;;0.25;0.25;;;;;18.67;54.07;102403.31;5046237;28;8855;-66
2022/08/31 09:25:36;;;;;;;;;0.00;0.00;;;;;18.68;54.13;102405.00;5046134;28;8816;-66
2022/08/31 09:28:35;;;;;;;;;2.00;0.00;;;;;18.80;53.97;102404.38;5023113;28;8913;-66
2022/08/31 09:31:02;;;;;;;;;0.00;0.00;;;;;18.80;53.01;102409.84;5018852;28;8947;-66
2022/08/31 09:33:33;;;;;;;;;0.00;0.00;;;;;18.84;52.09;102414.69;5029374;28;8859;-65
2022/08/31 09:36:16;;;;;;;;;2.00;1.00;;;;;18.86;52.33;102411.75;5030552;28;8835;-65
2022/08/31 09:38:45;;;;;;;;;0.00;0.00;;;;;18.92;52.54;102416.34;5030639;28;8824;-65
2022/08/31 09:41:32;;;;;;;;;0.50;0.50;;;;;18.91;52.79;102404.59;5027450;28;8833;-65
2022/08/31 09:44:43;;;;;;;;;1.00;1.00;;;;;18.90;53.75;102402.91;5030644;28;9561;-66
2022/08/31 09:47:47;;;;;;;;;0.50;0.50;;;;;18.95;53.22;102407.72;5027416;28;8953;-66
2022/08/31 09:50:26;;;;;;;;;1.25;1.25;;;;;18.97;52.66;102408.38;5030569;28;8820;-65
2022/08/31 09:56:17;;;;;;;;;0.00;0.00;;;;;18.94;53.56;102386.97;5026930;28;8828;-65
2022/08/31 09:59:00;;;;;;;;;1.00;1.00;;;;;19.07;52.85;102406.03;5009418;28;8835;-66
2022/08/31 10:01:43;;;;;;;;;1.75;1.00;;;;;19.05;52.49;102394.50;5021644;28;8820;-65
2022/08/31 10:04:24;;;;;;;;;2.00;0.50;;;;;19.11;52.28;102404.56;5030550;28;8943;-65
2022/08/31 10:07:12;;;;;;;;;0.00;0.00;;;;;19.09;51.30;102401.22;5030011;28;8867;-65
2022/08/31 10:09:46;;;;;;;;;0.50;0.00;;;;;19.11;52.37;102398.25;5030535;28;8959;-65
2022/08/31 10:12:38;;;;;;;;;1.00;1.00;;;;;19.23;51.80;102394.66;5029104;28;8816;-66
2022/08/31 10:15:15;;;;;;;;;0.75;0.75;;;;;19.34;49.91;102397.78;5030086;28;8897;-65
2022/08/31 10:17:55;;;;;;;;;0.75;0.75;;;;;19.38;50.20;102394.41;5010581;28;8819;-66
2022/08/31 10:20:29;;;;;;;;;1.00;1.00;;;;;19.34;49.34;102393.16;5012740;28;8965;-66
2022/08/31 10:23:07;;;;;;;;;0.25;0.25;;;;;19.36;49.25;102398.41;5028966;28;8845;-66
2022/08/31 10:25:51;;;;;;;;;0.75;0.50;;;;;19.35;48.99;102397.56;5030105;28;8849;-66
2022/08/31 10:28:36;;;;;;;;;0.00;0.00;;;;;19.35;48.15;102399.47;5034305;28;8839;-66
2022/08/31 10:31:12;;;;;;;;;1.00;0.75;;;;;19.37;47.67;102386.44;5022172;28;8906;-67
2022/08/31 10:37:02;;;;;;;;;0.00;0.00;;;;;19.34;47.51;102398.63;5010907;28;8953;-65
2022/08/31 10:39:37;;;;;;;;;0.25;0.25;;;;;19.43;47.57;102389.13;5030567;28;9343;-66
2022/08/31 10:42:09;;;;;;;;;0.00;0.00;;;;;19.47;47.63;102390.38;5032423;28;8894;-66
2022/08/31 10:44:51;;;;;;;;;0.00;0.00;;;;;19.49;47.14;102379.25;5048908;28;8835;-66
2022/08/31 10:47:18;;;;;;;;;0.25;0.25;;;;;19.52;47.42;102379.63;5033098;28;8851;-66
2022/08/31 10:49:59;;;;;;;;;0.00;0.00;;;;;19.60;48.06;102378.56;5033834;28;8835;-66
2022/08/31 10:52:41;;;;;;;;;0.00;0.00;;;;;19.68;47.41;102374.78;5033467;28;8905;-66
2022/08/31 10:55:20;;;;;;;;;0.25;0.25;;;;;19.74;46.86;102382.97;5029089;28;9488;-66
2022/08/31 10:58:18;;;;;;;;;1.00;1.00;;;;;19.73;46.59;102381.28;5021888;28;8862;-66
2022/08/31 11:00:52;;;;;;;;;0.00;0.00;;;;;19.79;47.51;102384.19;5034392;28;8935;-66
2022/08/31 11:03:21;;;;;;;;;0.00;0.00;;;;;19.79;47.51;102381.47;5033540;28;8855;-66
2022/08/31 11:06:09;;;;;;;;;0.00;0.00;;;;;19.92;47.69;102379.47;5048438;28;8825;-67
2022/08/31 11:09:05;;;;;;;;;0.00;0.00;;;;;19.97;45.53;102376.97;5033362;28;9595;-66
2022/08/31 11:11:55;;;;;;;;;0.00;0.00;;;;;19.95;44.38;102380.97;5046570;28;8825;-67
2022/08/31 11:15:04;;;;;;;;;0.25;0.25;;;;;19.97;45.55;102376.97;5033456;28;8970;-66
2022/08/31 11:18:14;;;;;;;;;1.00;1.00;;;;;20.05;45.48;102377.72;4981508;28;8857;-66
2022/08/31 11:20:41;;;;;;;;;0.75;0.75;;;;;20.10;44.73;102388.88;5033179;28;8848;-66
2022/08/31 11:23:27;;;;;;;;;0.00;0.00;;;;;20.07;45.31;102376.47;5033312;28;8832;-66
2022/08/31 11:26:15;;;;;;;;;0.00;0.00;;;;;20.09;45.67;102384.44;5032138;28;8843;-66
2022/08/31 11:28:48;;;;;;;;;3.75;0.75;;;;;20.13;46.13;102380.19;5032732;28;8872;-66
2022/08/31 11:31:24;;;;;;;;;1.00;1.00;;;;;20.12;45.78;102378.53;5032686;28;8832;-66
2022/08/31 11:33:56;;;;;;;;;0.00;0.00;;;;;20.13;46.36;102372.84;5032767;28;8871;-66
2022/08/31 11:36:51;;;;;;;;;0.00;0.00;;;;;20.22;46.19;102374.25;5032717;28;8820;-66
2022/08/31 11:39:34;;;;;;;;;1.50;1.00;;;;;20.28;46.09;102371.69;5032281;28;8837;-65
2022/08/31 11:42:17;;;;;;;;;1.00;0.00;;;;;20.25;46.30;102373.81;5032640;28;8983;-67
2022/08/31 11:44:58;;;;;;;;;2.00;0.50;;;;;20.20;47.59;102365.44;5046726;28;8923;-67
2022/08/31 11:47:27;;;;;;;;;0.00;0.00;;;;;20.23;47.59;102356.78;5032263;28;8820;-65
2022/08/31 11:49:58;;;;;;;;;0.25;0.25;;;;;20.28;46.14;102358.84;5047524;28;8832;-66
2022/08/31 11:52:47;;;;;;;;;1.00;1.00;;;;;20.27;45.18;102353.63;5032558;28;8894;-65
2022/08/31 11:55:38;;;;;;;;;0.00;0.00;;;;;20.37;45.56;102359.41;5032074;28;8869;-65
2022/08/31 11:58:14;;;;;;;;;0.50;0.50;;;;;20.40;44.73;102356.25;5032451;28;8824;-65
2022/08/31 12:01:01;;;;;;;;;1.00;1.00;;;;;20.41;44.17;102357.91;5025788;28;8816;-65
2022/08/31 12:03:42;;;;;;;;;0.00;0.00;;;;;20.43;45.02;102358.53;5038089;28;8839;-65
2022/08/31 12:06:32;;;;;;;;;0.50;0.50;;;;;20.53;44.67;102350.69;5021818;28;8877;-66
2022/08/31 12:09:22;;;;;;;;;1.00;1.00;;;;;20.61;44.47;102342.19;5032676;28;8862;-66
2022/08/31 12:12:08;;;;;;;;;0.00;0.00;;;;;20.68;43.70;102342.13;5031981;28;9538;-66
2022/08/31 12:14:48;;;;;;;;;0.75;0.75;;;;;20.71;43.08;102345.25;5032532;28;8832;-66
2022/08/31 12:17:47;;;;;;;;;0.00;0.00;;;;;20.71;43.90;102336.22;5023610;28;8823;-65
2022/08/31 12:20:19;;;;;;;;;0.00;0.00;;;;;20.76;43.60;102325.44;4982664;28;8823;-64
2022/08/31 12:26:08;;;;;;;;;0.00;0.00;;;;;20.85;45.55;102328.69;5031998;28;8833;-65
2022/08/31 12:28:53;;;;;;;;;0.75;0.00;;;;;20.89;45.32;102329.91;5019074;28;8877;-66
2022/08/31 12:31:20;;;;;;;;;1.50;1.00;;;;;20.88;44.33;102325.53;5037929;28;8860;-66